sensor_id;sensor_type;location;lat;lon;timestamp;P1;durP1;ratioP1;P2;durP2;ratioP2
57199;SDS011;43061;43.902;22.266;2022-07-23T00:02:10;13.73;;;3.83;;
57199;SDS011;43061;43.902;22.266;2022-07-23T00:04:36;10.88;;;3.45;;
57199;SDS011;43061;43.902;22.266;2022-07-23T00:07:03;8.80;;;3.70;;
57199;SDS011;43061;43.902;22.266;2022-07-23T00:09:29;12.48;;;3.78;;
57199;SDS011;43061;43.902;22.266;2022-07-23T00:11:56;9.13;;;3.60;;
57199;SDS011;43061;43.902;22.266;2022-07-23T00:14:22;9.07;;;3.60;;
57199;SDS011;43061;43.902;22.266;2022-07-23T00:16:48;8.77;;;3.63;;
57199;SDS011;43061;43.902;22.266;2022-07-23T00:19:15;10.40;;;3.70;;
57199;SDS011;43061;43.902;22.266;2022-07-23T00:21:41;11.63;;;5.10;;
57199;SDS011;43061;43.902;22.266;2022-07-23T00:24:07;12.32;;;4.07;;
57199;SDS011;43061;43.902;22.266;2022-07-23T00:26:33;10.23;;;3.50;;
57199;SDS011;43061;43.902;22.266;2022-07-23T00:28:59;10.68;;;3.80;;
57199;SDS011;43061;43.902;22.266;2022-07-23T00:31:25;8.50;;;3.78;;
57199;SDS011;43061;43.902;22.266;2022-07-23T00:33:52;10.55;;;3.75;;
57199;SDS011;43061;43.902;22.266;2022-07-23T00:36:22;9.00;;;3.67;;
57199;SDS011;43061;43.902;22.266;2022-07-23T00:38:48;8.73;;;3.83;;
57199;SDS011;43061;43.902;22.266;2022-07-23T00:41:14;9.88;;;3.80;;
57199;SDS011;43061;43.902;22.266;2022-07-23T00:43:41;8.48;;;3.50;;
57199;SDS011;43061;43.902;22.266;2022-07-23T00:46:07;10.18;;;3.70;;
57199;SDS011;43061;43.902;22.266;2022-07-23T00:48:33;10.32;;;4.20;;
57199;SDS011;43061;43.902;22.266;2022-07-23T00:50:59;11.10;;;3.70;;
57199;SDS011;43061;43.902;22.266;2022-07-23T00:53:25;9.98;;;3.88;;
57199;SDS011;43061;43.902;22.266;2022-07-23T00:55:51;10.43;;;3.60;;
57199;SDS011;43061;43.902;22.266;2022-07-23T00:58:18;8.65;;;3.55;;
57199;SDS011;43061;43.902;22.266;2022-07-23T01:00:45;10.02;;;4.30;;
57199;SDS011;43061;43.902;22.266;2022-07-23T01:03:11;9.25;;;4.20;;
57199;SDS011;43061;43.902;22.266;2022-07-23T01:05:37;16.85;;;7.22;;
57199;SDS011;43061;43.902;22.266;2022-07-23T01:08:05;9.05;;;3.85;;
57199;SDS011;43061;43.902;22.266;2022-07-23T01:10:31;11.23;;;3.88;;
57199;SDS011;43061;43.902;22.266;2022-07-23T01:12:58;12.20;;;3.80;;
57199;SDS011;43061;43.902;22.266;2022-07-23T01:15:24;9.75;;;3.92;;
57199;SDS011;43061;43.902;22.266;2022-07-23T01:17:50;8.55;;;4.10;;
57199;SDS011;43061;43.902;22.266;2022-07-23T01:20:16;9.82;;;3.80;;
57199;SDS011;43061;43.902;22.266;2022-07-23T01:22:43;10.15;;;3.90;;
57199;SDS011;43061;43.902;22.266;2022-07-23T01:25:09;9.05;;;4.18;;
57199;SDS011;43061;43.902;22.266;2022-07-23T01:27:35;9.45;;;4.00;;
57199;SDS011;43061;43.902;22.266;2022-07-23T01:30:02;10.98;;;4.00;;
57199;SDS011;43061;43.902;22.266;2022-07-23T01:32:29;9.20;;;4.00;;
57199;SDS011;43061;43.902;22.266;2022-07-23T01:34:55;9.55;;;3.85;;
57199;SDS011;43061;43.902;22.266;2022-07-23T01:37:21;9.35;;;3.72;;
57199;SDS011;43061;43.902;22.266;2022-07-23T01:39:47;8.48;;;3.78;;
57199;SDS011;43061;43.902;22.266;2022-07-23T01:42:13;10.95;;;4.00;;
57199;SDS011;43061;43.902;22.266;2022-07-23T01:44:39;10.18;;;3.60;;
57199;SDS011;43061;43.902;22.266;2022-07-23T01:47:05;9.02;;;4.05;;
57199;SDS011;43061;43.902;22.266;2022-07-23T01:49:31;7.80;;;3.92;;
57199;SDS011;43061;43.902;22.266;2022-07-23T01:51:58;7.03;;;3.60;;
57199;SDS011;43061;43.902;22.266;2022-07-23T01:54:30;9.00;;;3.83;;
57199;SDS011;43061;43.902;22.266;2022-07-23T01:56:57;11.32;;;3.65;;
57199;SDS011;43061;43.902;22.266;2022-07-23T01:59:24;9.80;;;3.78;;
57199;SDS011;43061;43.902;22.266;2022-07-23T02:01:50;8.18;;;3.67;;
57199;SDS011;43061;43.902;22.266;2022-07-23T02:04:19;10.23;;;3.60;;
57199;SDS011;43061;43.902;22.266;2022-07-23T02:06:46;10.00;;;4.00;;
57199;SDS011;43061;43.902;22.266;2022-07-23T02:09:12;8.23;;;3.72;;
57199;SDS011;43061;43.902;22.266;2022-07-23T02:11:38;8.60;;;4.00;;
57199;SDS011;43061;43.902;22.266;2022-07-23T02:14:04;9.93;;;3.90;;
57199;SDS011;43061;43.902;22.266;2022-07-23T02:16:31;12.23;;;3.90;;
57199;SDS011;43061;43.902;22.266;2022-07-23T02:18:57;9.20;;;4.10;;
57199;SDS011;43061;43.902;22.266;2022-07-23T02:21:23;11.38;;;4.05;;
57199;SDS011;43061;43.902;22.266;2022-07-23T02:23:49;8.05;;;3.83;;
57199;SDS011;43061;43.902;22.266;2022-07-23T02:26:15;8.93;;;4.10;;
57199;SDS011;43061;43.902;22.266;2022-07-23T02:28:41;10.00;;;4.25;;
57199;SDS011;43061;43.902;22.266;2022-07-23T02:31:07;11.73;;;4.20;;
57199;SDS011;43061;43.902;22.266;2022-07-23T02:33:33;10.27;;;4.28;;
57199;SDS011;43061;43.902;22.266;2022-07-23T02:35:59;10.30;;;4.22;;
57199;SDS011;43061;43.902;22.266;2022-07-23T02:38:26;10.93;;;4.00;;
57199;SDS011;43061;43.902;22.266;2022-07-23T02:40:52;7.05;;;3.95;;
57199;SDS011;43061;43.902;22.266;2022-07-23T02:43:18;10.75;;;4.10;;
57199;SDS011;43061;43.902;22.266;2022-07-23T02:45:44;12.82;;;4.40;;
57199;SDS011;43061;43.902;22.266;2022-07-23T02:48:10;10.63;;;4.63;;
57199;SDS011;43061;43.902;22.266;2022-07-23T02:50:37;10.65;;;4.47;;
57199;SDS011;43061;43.902;22.266;2022-07-23T02:53:04;8.70;;;3.80;;
57199;SDS011;43061;43.902;22.266;2022-07-23T02:55:30;8.27;;;4.10;;
57199;SDS011;43061;43.902;22.266;2022-07-23T02:57:56;10.02;;;3.97;;
57199;SDS011;43061;43.902;22.266;2022-07-23T03:00:22;8.27;;;3.95;;
57199;SDS011;43061;43.902;22.266;2022-07-23T03:02:48;12.30;;;3.92;;
57199;SDS011;43061;43.902;22.266;2022-07-23T03:05:15;12.02;;;4.30;;
57199;SDS011;43061;43.902;22.266;2022-07-23T03:07:41;9.35;;;4.03;;
57199;SDS011;43061;43.902;22.266;2022-07-23T03:10:07;12.98;;;4.18;;
57199;SDS011;43061;43.902;22.266;2022-07-23T03:12:33;6.50;;;3.90;;
57199;SDS011;43061;43.902;22.266;2022-07-23T03:14:59;10.95;;;4.07;;
57199;SDS011;43061;43.902;22.266;2022-07-23T03:17:25;8.70;;;4.20;;
57199;SDS011;43061;43.902;22.266;2022-07-23T03:19:51;9.70;;;4.28;;
57199;SDS011;43061;43.902;22.266;2022-07-23T03:22:17;10.02;;;4.03;;
57199;SDS011;43061;43.902;22.266;2022-07-23T03:24:43;11.93;;;4.00;;
57199;SDS011;43061;43.902;22.266;2022-07-23T03:27:19;11.75;;;4.30;;
57199;SDS011;43061;43.902;22.266;2022-07-23T03:29:45;17.27;;;4.30;;
57199;SDS011;43061;43.902;22.266;2022-07-23T03:32:11;9.95;;;4.13;;
57199;SDS011;43061;43.902;22.266;2022-07-23T03:34:38;8.63;;;3.95;;
57199;SDS011;43061;43.902;22.266;2022-07-23T03:37:04;10.35;;;4.28;;
57199;SDS011;43061;43.902;22.266;2022-07-23T03:39:30;11.45;;;4.35;;
57199;SDS011;43061;43.902;22.266;2022-07-23T03:41:56;7.75;;;3.70;;
57199;SDS011;43061;43.902;22.266;2022-07-23T03:44:22;9.75;;;4.13;;
57199;SDS011;43061;43.902;22.266;2022-07-23T03:46:48;11.73;;;4.40;;
57199;SDS011;43061;43.902;22.266;2022-07-23T03:49:14;10.98;;;4.13;;
57199;SDS011;43061;43.902;22.266;2022-07-23T03:51:41;12.48;;;4.15;;
57199;SDS011;43061;43.902;22.266;2022-07-23T03:54:07;7.32;;;4.10;;
57199;SDS011;43061;43.902;22.266;2022-07-23T03:56:33;8.98;;;4.55;;
57199;SDS011;43061;43.902;22.266;2022-07-23T03:58:59;13.05;;;4.43;;
57199;SDS011;43061;43.902;22.266;2022-07-23T04:01:25;9.15;;;4.22;;
57199;SDS011;43061;43.902;22.266;2022-07-23T04:03:51;9.23;;;4.40;;
57199;SDS011;43061;43.902;22.266;2022-07-23T04:06:17;10.57;;;4.10;;
57199;SDS011;43061;43.902;22.266;2022-07-23T04:08:43;10.20;;;4.00;;
57199;SDS011;43061;43.902;22.266;2022-07-23T04:11:09;13.20;;;4.20;;
57199;SDS011;43061;43.902;22.266;2022-07-23T04:13:35;11.02;;;4.10;;
57199;SDS011;43061;43.902;22.266;2022-07-23T04:16:01;9.77;;;4.15;;
57199;SDS011;43061;43.902;22.266;2022-07-23T04:18:28;12.35;;;4.32;;
57199;SDS011;43061;43.902;22.266;2022-07-23T04:20:55;10.35;;;4.18;;
57199;SDS011;43061;43.902;22.266;2022-07-23T04:23:21;9.43;;;4.25;;
57199;SDS011;43061;43.902;22.266;2022-07-23T04:25:47;10.38;;;4.18;;
57199;SDS011;43061;43.902;22.266;2022-07-23T04:28:13;8.98;;;3.80;;
57199;SDS011;43061;43.902;22.266;2022-07-23T04:30:39;10.93;;;4.20;;
57199;SDS011;43061;43.902;22.266;2022-07-23T04:33:05;8.35;;;4.38;;
57199;SDS011;43061;43.902;22.266;2022-07-23T04:35:34;8.98;;;4.18;;
57199;SDS011;43061;43.902;22.266;2022-07-23T04:38:01;16.10;;;4.57;;
57199;SDS011;43061;43.902;22.266;2022-07-23T04:40:27;9.75;;;4.32;;
57199;SDS011;43061;43.902;22.266;2022-07-23T04:42:53;11.43;;;4.75;;
57199;SDS011;43061;43.902;22.266;2022-07-23T04:45:19;13.75;;;4.60;;
57199;SDS011;43061;43.902;22.266;2022-07-23T04:47:46;8.60;;;4.25;;
57199;SDS011;43061;43.902;22.266;2022-07-23T04:50:12;12.57;;;4.60;;
57199;SDS011;43061;43.902;22.266;2022-07-23T04:52:38;12.82;;;4.80;;
57199;SDS011;43061;43.902;22.266;2022-07-23T04:55:04;9.82;;;4.40;;
57199;SDS011;43061;43.902;22.266;2022-07-23T04:57:30;9.23;;;4.03;;
57199;SDS011;43061;43.902;22.266;2022-07-23T04:59:56;11.55;;;4.40;;
57199;SDS011;43061;43.902;22.266;2022-07-23T05:02:22;10.93;;;4.28;;
57199;SDS011;43061;43.902;22.266;2022-07-23T05:04:48;10.80;;;4.63;;
57199;SDS011;43061;43.902;22.266;2022-07-23T05:07:15;9.50;;;4.70;;
57199;SDS011;43061;43.902;22.266;2022-07-23T05:09:41;11.05;;;4.50;;
57199;SDS011;43061;43.902;22.266;2022-07-23T05:12:07;10.85;;;4.60;;
57199;SDS011;43061;43.902;22.266;2022-07-23T05:14:33;13.27;;;4.43;;
57199;SDS011;43061;43.902;22.266;2022-07-23T05:16:59;11.27;;;4.55;;
57199;SDS011;43061;43.902;22.266;2022-07-23T05:19:25;12.75;;;4.65;;
57199;SDS011;43061;43.902;22.266;2022-07-23T05:21:51;8.93;;;4.22;;
57199;SDS011;43061;43.902;22.266;2022-07-23T05:24:18;12.65;;;4.53;;
57199;SDS011;43061;43.902;22.266;2022-07-23T05:26:44;11.00;;;4.55;;
57199;SDS011;43061;43.902;22.266;2022-07-23T05:29:10;9.10;;;4.53;;
57199;SDS011;43061;43.902;22.266;2022-07-23T05:31:36;11.30;;;4.72;;
57199;SDS011;43061;43.902;22.266;2022-07-23T05:34:02;11.48;;;5.47;;
57199;SDS011;43061;43.902;22.266;2022-07-23T05:36:29;13.05;;;5.88;;
57199;SDS011;43061;43.902;22.266;2022-07-23T05:38:56;14.35;;;5.88;;
57199;SDS011;43061;43.902;22.266;2022-07-23T05:41:22;13.77;;;5.35;;
57199;SDS011;43061;43.902;22.266;2022-07-23T05:43:48;8.73;;;4.55;;
57199;SDS011;43061;43.902;22.266;2022-07-23T05:46:15;9.05;;;4.32;;
57199;SDS011;43061;43.902;22.266;2022-07-23T05:48:41;7.72;;;4.30;;
57199;SDS011;43061;43.902;22.266;2022-07-23T05:51:07;9.48;;;4.47;;
57199;SDS011;43061;43.902;22.266;2022-07-23T05:53:34;12.07;;;4.22;;
57199;SDS011;43061;43.902;22.266;2022-07-23T05:56:00;10.52;;;4.38;;
57199;SDS011;43061;43.902;22.266;2022-07-23T05:58:27;10.70;;;4.40;;
57199;SDS011;43061;43.902;22.266;2022-07-23T06:00:53;10.65;;;4.22;;
57199;SDS011;43061;43.902;22.266;2022-07-23T06:03:19;10.88;;;5.07;;
57199;SDS011;43061;43.902;22.266;2022-07-23T06:05:45;12.38;;;5.10;;
57199;SDS011;43061;43.902;22.266;2022-07-23T06:08:11;9.73;;;4.65;;
57199;SDS011;43061;43.902;22.266;2022-07-23T06:10:37;11.52;;;4.68;;
57199;SDS011;43061;43.902;22.266;2022-07-23T06:13:03;11.95;;;4.47;;
57199;SDS011;43061;43.902;22.266;2022-07-23T06:15:29;10.50;;;4.53;;
57199;SDS011;43061;43.902;22.266;2022-07-23T06:17:55;10.68;;;4.28;;
57199;SDS011;43061;43.902;22.266;2022-07-23T06:20:22;10.07;;;4.40;;
57199;SDS011;43061;43.902;22.266;2022-07-23T06:22:48;9.73;;;4.72;;
57199;SDS011;43061;43.902;22.266;2022-07-23T06:25:14;11.90;;;4.53;;
57199;SDS011;43061;43.902;22.266;2022-07-23T06:27:41;11.05;;;3.95;;
57199;SDS011;43061;43.902;22.266;2022-07-23T06:30:07;11.13;;;4.20;;
57199;SDS011;43061;43.902;22.266;2022-07-23T06:32:35;11.07;;;4.35;;
57199;SDS011;43061;43.902;22.266;2022-07-23T06:35:01;11.68;;;4.20;;
57199;SDS011;43061;43.902;22.266;2022-07-23T06:37:27;11.30;;;4.53;;
57199;SDS011;43061;43.902;22.266;2022-07-23T06:39:53;10.05;;;4.32;;
57199;SDS011;43061;43.902;22.266;2022-07-23T06:42:19;10.65;;;4.38;;
57199;SDS011;43061;43.902;22.266;2022-07-23T06:44:45;11.07;;;4.35;;
57199;SDS011;43061;43.902;22.266;2022-07-23T06:47:12;9.20;;;3.90;;
57199;SDS011;43061;43.902;22.266;2022-07-23T06:49:38;10.35;;;3.95;;
57199;SDS011;43061;43.902;22.266;2022-07-23T06:52:06;11.30;;;4.22;;
57199;SDS011;43061;43.902;22.266;2022-07-23T06:54:32;10.13;;;4.15;;
57199;SDS011;43061;43.902;22.266;2022-07-23T06:56:58;14.65;;;4.32;;
57199;SDS011;43061;43.902;22.266;2022-07-23T06:59:24;7.90;;;4.00;;
57199;SDS011;43061;43.902;22.266;2022-07-23T07:01:50;9.30;;;4.30;;
57199;SDS011;43061;43.902;22.266;2022-07-23T07:04:16;11.18;;;4.18;;
57199;SDS011;43061;43.902;22.266;2022-07-23T07:06:42;14.15;;;4.18;;
57199;SDS011;43061;43.902;22.266;2022-07-23T07:09:08;13.18;;;4.38;;
57199;SDS011;43061;43.902;22.266;2022-07-23T07:11:34;12.57;;;4.20;;
57199;SDS011;43061;43.902;22.266;2022-07-23T07:14:00;9.85;;;4.00;;
57199;SDS011;43061;43.902;22.266;2022-07-23T07:16:26;11.20;;;3.97;;
57199;SDS011;43061;43.902;22.266;2022-07-23T07:18:52;10.50;;;4.20;;
57199;SDS011;43061;43.902;22.266;2022-07-23T07:21:18;11.55;;;4.07;;
57199;SDS011;43061;43.902;22.266;2022-07-23T07:23:45;12.40;;;4.40;;
57199;SDS011;43061;43.902;22.266;2022-07-23T07:26:11;9.40;;;4.15;;
57199;SDS011;43061;43.902;22.266;2022-07-23T07:28:37;11.75;;;4.45;;
57199;SDS011;43061;43.902;22.266;2022-07-23T07:31:03;10.20;;;4.10;;
57199;SDS011;43061;43.902;22.266;2022-07-23T07:33:29;9.15;;;3.80;;
57199;SDS011;43061;43.902;22.266;2022-07-23T07:35:55;8.60;;;4.00;;
57199;SDS011;43061;43.902;22.266;2022-07-23T07:38:21;11.30;;;4.22;;
57199;SDS011;43061;43.902;22.266;2022-07-23T07:40:47;9.20;;;4.13;;
57199;SDS011;43061;43.902;22.266;2022-07-23T07:43:13;10.13;;;4.00;;
57199;SDS011;43061;43.902;22.266;2022-07-23T07:45:39;9.85;;;4.20;;
57199;SDS011;43061;43.902;22.266;2022-07-23T07:48:05;11.02;;;4.05;;
57199;SDS011;43061;43.902;22.266;2022-07-23T07:50:31;9.60;;;3.90;;
57199;SDS011;43061;43.902;22.266;2022-07-23T07:52:57;9.95;;;4.10;;
57199;SDS011;43061;43.902;22.266;2022-07-23T07:55:24;11.18;;;4.28;;
57199;SDS011;43061;43.902;22.266;2022-07-23T07:57:50;13.88;;;4.30;;
57199;SDS011;43061;43.902;22.266;2022-07-23T08:00:16;15.02;;;4.45;;
57199;SDS011;43061;43.902;22.266;2022-07-23T08:02:47;10.57;;;4.40;;
57199;SDS011;43061;43.902;22.266;2022-07-23T08:05:13;7.40;;;4.00;;
57199;SDS011;43061;43.902;22.266;2022-07-23T08:07:39;11.10;;;4.55;;
57199;SDS011;43061;43.902;22.266;2022-07-23T08:10:09;11.63;;;4.60;;
57199;SDS011;43061;43.902;22.266;2022-07-23T08:12:38;10.98;;;4.10;;
57199;SDS011;43061;43.902;22.266;2022-07-23T08:15:05;12.30;;;4.53;;
57199;SDS011;43061;43.902;22.266;2022-07-23T08:17:31;14.77;;;4.63;;
57199;SDS011;43061;43.902;22.266;2022-07-23T08:19:57;14.48;;;4.20;;
57199;SDS011;43061;43.902;22.266;2022-07-23T08:22:23;14.55;;;4.35;;
57199;SDS011;43061;43.902;22.266;2022-07-23T08:24:50;10.90;;;4.10;;
57199;SDS011;43061;43.902;22.266;2022-07-23T08:27:16;9.02;;;4.60;;
57199;SDS011;43061;43.902;22.266;2022-07-23T08:29:42;15.75;;;4.28;;
57199;SDS011;43061;43.902;22.266;2022-07-23T08:32:08;10.50;;;4.07;;
57199;SDS011;43061;43.902;22.266;2022-07-23T08:34:34;8.73;;;3.70;;
57199;SDS011;43061;43.902;22.266;2022-07-23T08:37:00;10.95;;;3.80;;
57199;SDS011;43061;43.902;22.266;2022-07-23T08:39:27;9.95;;;3.83;;
57199;SDS011;43061;43.902;22.266;2022-07-23T08:41:53;11.30;;;3.83;;
57199;SDS011;43061;43.902;22.266;2022-07-23T08:44:19;11.35;;;4.78;;
57199;SDS011;43061;43.902;22.266;2022-07-23T08:46:45;9.65;;;3.67;;
57199;SDS011;43061;43.902;22.266;2022-07-23T08:49:12;10.57;;;3.50;;
57199;SDS011;43061;43.902;22.266;2022-07-23T08:51:39;9.68;;;4.00;;
57199;SDS011;43061;43.902;22.266;2022-07-23T08:54:05;8.88;;;4.00;;
57199;SDS011;43061;43.902;22.266;2022-07-23T08:56:31;40.67;;;4.55;;
57199;SDS011;43061;43.902;22.266;2022-07-23T08:58:57;8.93;;;3.95;;
57199;SDS011;43061;43.902;22.266;2022-07-23T09:01:23;10.95;;;4.15;;
57199;SDS011;43061;43.902;22.266;2022-07-23T09:03:49;10.98;;;3.90;;
57199;SDS011;43061;43.902;22.266;2022-07-23T09:06:16;9.00;;;3.90;;
57199;SDS011;43061;43.902;22.266;2022-07-23T09:08:42;12.90;;;4.18;;
57199;SDS011;43061;43.902;22.266;2022-07-23T09:11:13;12.23;;;3.85;;
57199;SDS011;43061;43.902;22.266;2022-07-23T09:13:53;10.80;;;4.22;;
57199;SDS011;43061;43.902;22.266;2022-07-23T09:16:25;10.18;;;3.92;;
57199;SDS011;43061;43.902;22.266;2022-07-23T09:21:27;10.10;;;3.75;;
57199;SDS011;43061;43.902;22.266;2022-07-23T09:24:04;11.10;;;3.88;;
57199;SDS011;43061;43.902;22.266;2022-07-23T09:28:58;11.80;;;3.55;;
57199;SDS011;43061;43.902;22.266;2022-07-23T09:31:25;10.02;;;3.75;;
57199;SDS011;43061;43.902;22.266;2022-07-23T09:33:51;11.48;;;3.80;;
57199;SDS011;43061;43.902;22.266;2022-07-23T09:36:26;8.38;;;3.63;;
57199;SDS011;43061;43.902;22.266;2022-07-23T09:38:53;7.45;;;3.47;;
57199;SDS011;43061;43.902;22.266;2022-07-23T09:41:19;11.38;;;3.55;;
57199;SDS011;43061;43.902;22.266;2022-07-23T09:43:45;8.48;;;3.60;;
57199;SDS011;43061;43.902;22.266;2022-07-23T09:46:18;10.57;;;3.38;;
57199;SDS011;43061;43.902;22.266;2022-07-23T09:48:45;10.90;;;3.30;;
57199;SDS011;43061;43.902;22.266;2022-07-23T09:51:11;8.50;;;3.35;;
57199;SDS011;43061;43.902;22.266;2022-07-23T09:53:40;12.50;;;3.15;;
57199;SDS011;43061;43.902;22.266;2022-07-23T09:56:07;10.93;;;3.70;;
57199;SDS011;43061;43.902;22.266;2022-07-23T09:58:34;9.13;;;3.70;;
57199;SDS011;43061;43.902;22.266;2022-07-23T10:01:08;8.27;;;3.58;;
57199;SDS011;43061;43.902;22.266;2022-07-23T10:03:34;13.23;;;3.25;;
57199;SDS011;43061;43.902;22.266;2022-07-23T10:06:00;8.38;;;3.40;;
57199;SDS011;43061;43.902;22.266;2022-07-23T10:08:27;9.50;;;3.42;;
57199;SDS011;43061;43.902;22.266;2022-07-23T10:10:54;7.75;;;3.20;;
57199;SDS011;43061;43.902;22.266;2022-07-23T10:13:20;32.75;;;3.90;;
57199;SDS011;43061;43.902;22.266;2022-07-23T10:16:05;6.57;;;3.00;;
57199;SDS011;43061;43.902;22.266;2022-07-23T10:18:31;8.40;;;3.15;;
57199;SDS011;43061;43.902;22.266;2022-07-23T10:20:57;9.80;;;3.33;;
57199;SDS011;43061;43.902;22.266;2022-07-23T10:23:28;12.60;;;3.25;;
57199;SDS011;43061;43.902;22.266;2022-07-23T10:26:10;11.77;;;3.35;;
57199;SDS011;43061;43.902;22.266;2022-07-23T10:39:13;7.10;;;3.15;;
57199;SDS011;43061;43.902;22.266;2022-07-23T10:41:41;10.55;;;3.28;;
57199;SDS011;43061;43.902;22.266;2022-07-23T10:44:08;10.32;;;3.58;;
57199;SDS011;43061;43.902;22.266;2022-07-23T10:46:34;7.70;;;3.30;;
57199;SDS011;43061;43.902;22.266;2022-07-23T10:54:30;7.93;;;3.00;;
57199;SDS011;43061;43.902;22.266;2022-07-23T10:59:22;8.13;;;3.00;;
57199;SDS011;43061;43.902;22.266;2022-07-23T11:01:49;10.13;;;3.30;;
57199;SDS011;43061;43.902;22.266;2022-07-23T11:04:15;10.57;;;3.28;;
57199;SDS011;43061;43.902;22.266;2022-07-23T11:17:24;10.38;;;3.10;;
57199;SDS011;43061;43.902;22.266;2022-07-23T11:22:35;11.88;;;3.50;;
57199;SDS011;43061;43.902;22.266;2022-07-23T11:25:01;8.15;;;3.00;;
57199;SDS011;43061;43.902;22.266;2022-07-23T11:27:38;9.65;;;3.10;;
57199;SDS011;43061;43.902;22.266;2022-07-23T11:30:04;11.30;;;3.50;;
57199;SDS011;43061;43.902;22.266;2022-07-23T11:32:32;9.80;;;3.20;;
57199;SDS011;43061;43.902;22.266;2022-07-23T11:35:00;8.18;;;3.67;;
57199;SDS011;43061;43.902;22.266;2022-07-23T11:39:56;10.27;;;3.40;;
57199;SDS011;43061;43.902;22.266;2022-07-23T11:42:23;12.27;;;3.38;;
57199;SDS011;43061;43.902;22.266;2022-07-23T11:44:49;8.73;;;3.20;;
57199;SDS011;43061;43.902;22.266;2022-07-23T11:47:20;9.05;;;3.20;;
57199;SDS011;43061;43.902;22.266;2022-07-23T11:49:54;14.32;;;3.90;;
57199;SDS011;43061;43.902;22.266;2022-07-23T11:52:20;22.70;;;4.00;;
57199;SDS011;43061;43.902;22.266;2022-07-23T11:54:47;10.82;;;3.20;;
57199;SDS011;43061;43.902;22.266;2022-07-23T11:57:14;9.05;;;3.40;;
57199;SDS011;43061;43.902;22.266;2022-07-23T11:59:40;9.45;;;3.20;;
57199;SDS011;43061;43.902;22.266;2022-07-23T12:02:07;13.88;;;7.90;;
57199;SDS011;43061;43.902;22.266;2022-07-23T12:04:40;9.75;;;3.40;;
57199;SDS011;43061;43.902;22.266;2022-07-23T12:09:52;10.05;;;3.15;;
57199;SDS011;43061;43.902;22.266;2022-07-23T12:12:18;12.07;;;3.17;;
57199;SDS011;43061;43.902;22.266;2022-07-23T12:14:54;9.35;;;3.40;;
57199;SDS011;43061;43.902;22.266;2022-07-23T12:17:22;11.35;;;3.60;;
57199;SDS011;43061;43.902;22.266;2022-07-23T12:19:53;9.88;;;3.20;;
57199;SDS011;43061;43.902;22.266;2022-07-23T12:22:19;7.72;;;3.03;;
57199;SDS011;43061;43.902;22.266;2022-07-23T12:27:31;15.40;;;3.40;;
57199;SDS011;43061;43.902;22.266;2022-07-23T12:29:57;9.82;;;3.60;;
57199;SDS011;43061;43.902;22.266;2022-07-23T12:32:25;9.38;;;3.13;;
57199;SDS011;43061;43.902;22.266;2022-07-23T12:35:08;11.27;;;3.42;;
57199;SDS011;43061;43.902;22.266;2022-07-23T12:42:45;8.45;;;3.30;;
57199;SDS011;43061;43.902;22.266;2022-07-23T12:45:12;9.63;;;3.47;;
57199;SDS011;43061;43.902;22.266;2022-07-23T12:48:15;9.23;;;3.42;;
57199;SDS011;43061;43.902;22.266;2022-07-23T12:55:33;10.45;;;3.10;;
57199;SDS011;43061;43.902;22.266;2022-07-23T12:58:03;9.73;;;3.40;;
57199;SDS011;43061;43.902;22.266;2022-07-23T13:00:30;12.85;;;3.38;;
57199;SDS011;43061;43.902;22.266;2022-07-23T13:02:56;12.70;;;3.65;;
57199;SDS011;43061;43.902;22.266;2022-07-23T13:05:22;9.27;;;3.20;;
57199;SDS011;43061;43.902;22.266;2022-07-23T13:07:48;11.60;;;3.33;;
57199;SDS011;43061;43.902;22.266;2022-07-23T13:10:14;9.35;;;3.75;;
57199;SDS011;43061;43.902;22.266;2022-07-23T13:12:40;13.05;;;3.42;;
57199;SDS011;43061;43.902;22.266;2022-07-23T13:15:07;10.95;;;3.25;;
57199;SDS011;43061;43.902;22.266;2022-07-23T13:17:33;9.45;;;3.28;;
57199;SDS011;43061;43.902;22.266;2022-07-23T13:19:59;13.80;;;3.58;;
57199;SDS011;43061;43.902;22.266;2022-07-23T13:22:25;13.57;;;3.38;;
57199;SDS011;43061;43.902;22.266;2022-07-23T13:24:51;10.52;;;3.20;;
57199;SDS011;43061;43.902;22.266;2022-07-23T13:27:17;10.75;;;3.22;;
57199;SDS011;43061;43.902;22.266;2022-07-23T13:29:43;11.98;;;3.20;;
57199;SDS011;43061;43.902;22.266;2022-07-23T13:32:09;11.25;;;3.65;;
57199;SDS011;43061;43.902;22.266;2022-07-23T13:34:37;10.00;;;3.33;;
57199;SDS011;43061;43.902;22.266;2022-07-23T13:37:03;10.38;;;3.35;;
57199;SDS011;43061;43.902;22.266;2022-07-23T13:39:29;11.55;;;3.58;;
57199;SDS011;43061;43.902;22.266;2022-07-23T13:41:56;9.80;;;3.10;;
57199;SDS011;43061;43.902;22.266;2022-07-23T13:44:22;10.20;;;3.72;;
57199;SDS011;43061;43.902;22.266;2022-07-23T13:46:48;11.65;;;3.30;;
57199;SDS011;43061;43.902;22.266;2022-07-23T13:49:14;9.40;;;3.20;;
57199;SDS011;43061;43.902;22.266;2022-07-23T13:51:40;9.80;;;3.10;;
57199;SDS011;43061;43.902;22.266;2022-07-23T13:54:06;10.27;;;3.28;;
57199;SDS011;43061;43.902;22.266;2022-07-23T13:56:32;9.27;;;3.25;;
57199;SDS011;43061;43.902;22.266;2022-07-23T13:58:59;13.77;;;3.47;;
57199;SDS011;43061;43.902;22.266;2022-07-23T14:01:25;9.25;;;3.60;;
57199;SDS011;43061;43.902;22.266;2022-07-23T14:03:51;11.43;;;3.42;;
57199;SDS011;43061;43.902;22.266;2022-07-23T14:06:17;8.38;;;3.22;;
57199;SDS011;43061;43.902;22.266;2022-07-23T14:08:44;9.32;;;3.10;;
57199;SDS011;43061;43.902;22.266;2022-07-23T14:11:10;9.30;;;3.20;;
57199;SDS011;43061;43.902;22.266;2022-07-23T14:13:36;6.78;;;2.90;;
57199;SDS011;43061;43.902;22.266;2022-07-23T14:16:02;8.82;;;3.08;;
57199;SDS011;43061;43.902;22.266;2022-07-23T14:18:28;9.80;;;3.50;;
57199;SDS011;43061;43.902;22.266;2022-07-23T14:20:55;9.13;;;3.10;;
57199;SDS011;43061;43.902;22.266;2022-07-23T14:23:21;8.80;;;3.10;;
57199;SDS011;43061;43.902;22.266;2022-07-23T14:25:47;7.47;;;2.83;;
57199;SDS011;43061;43.902;22.266;2022-07-23T14:28:13;8.65;;;3.15;;
57199;SDS011;43061;43.902;22.266;2022-07-23T14:30:39;10.80;;;3.00;;
57199;SDS011;43061;43.902;22.266;2022-07-23T14:33:05;9.18;;;2.80;;
57199;SDS011;43061;43.902;22.266;2022-07-23T14:35:31;10.02;;;3.17;;
57199;SDS011;43061;43.902;22.266;2022-07-23T14:37:57;8.77;;;3.10;;
57199;SDS011;43061;43.902;22.266;2022-07-23T14:40:23;15.35;;;4.35;;
57199;SDS011;43061;43.902;22.266;2022-07-23T14:42:49;13.25;;;3.72;;
57199;SDS011;43061;43.902;22.266;2022-07-23T14:45:15;9.45;;;3.40;;
57199;SDS011;43061;43.902;22.266;2022-07-23T14:47:41;7.28;;;2.92;;
57199;SDS011;43061;43.902;22.266;2022-07-23T14:50:07;9.88;;;3.00;;
57199;SDS011;43061;43.902;22.266;2022-07-23T14:52:33;9.77;;;3.03;;
57199;SDS011;43061;43.902;22.266;2022-07-23T14:55:00;7.63;;;2.92;;
57199;SDS011;43061;43.902;22.266;2022-07-23T14:57:26;9.52;;;4.20;;
57199;SDS011;43061;43.902;22.266;2022-07-23T14:59:52;8.07;;;3.00;;
57199;SDS011;43061;43.902;22.266;2022-07-23T15:02:18;8.50;;;3.20;;
57199;SDS011;43061;43.902;22.266;2022-07-23T15:04:44;9.65;;;2.95;;
57199;SDS011;43061;43.902;22.266;2022-07-23T15:07:10;13.20;;;2.90;;
57199;SDS011;43061;43.902;22.266;2022-07-23T15:09:36;8.35;;;2.83;;
57199;SDS011;43061;43.902;22.266;2022-07-23T15:12:02;9.18;;;2.90;;
57199;SDS011;43061;43.902;22.266;2022-07-23T15:14:29;11.73;;;3.00;;
57199;SDS011;43061;43.902;22.266;2022-07-23T15:16:55;7.45;;;2.80;;
57199;SDS011;43061;43.902;22.266;2022-07-23T15:19:21;7.60;;;2.70;;
57199;SDS011;43061;43.902;22.266;2022-07-23T15:21:47;7.88;;;3.00;;